Sand Springs, Montana
Current Conditions -  °F | °C
As of 9:40 AM on Monday 26 Jan 2015 (Local Time) from KMVH Reporting Station
Clear Clear  
Wind Chill: 48°   Ceiling: Unl
Heat Index: 48°   Visibility: 10mi
Dew Point: 28°   Wind: 0mph
Humidity: 46%   Direction: NA
Pressure: 30.07"   Gusts: NA
Location:  47.1°N, 107.49°W
Report Text: KMVH 261640Z AUTO 00000KT 10SM CLR 09/M02 A3007 RMK A01
Loading
Personal Weather Stations






























Interactive Weather Map New forecast layout! Learn more

10-Day Weather Forecast

Advertisements
Track Severe Weather on mobile